Time;durP1;ratioP1;P1;durP2;ratioP2;P2;SDS_P1;SDS_P2;PMS_P1;PMS_P2;Temp;Humidity;BMP_temperature;BMP_pressure;BME280_temperature;BME280_humidity;BME280_pressure;Samples;Min_cycle;Max_cycle;Signal;HPM_P1;HPM_P2
2021/03/20 00:00:46;;;;;;;12.32;3.03;;;21.70;91.60;;;;;;5050889;28;20418;-59
2021/03/20 00:03:14;;;;;;;6.50;2.00;;;21.70;91.60;;;;;;5070978;28;20020;-56
2021/03/20 00:05:41;;;;;;;7.30;2.40;;;21.70;91.50;;;;;;5071097;28;20084;-57
2021/03/20 00:08:10;;;;;;;7.28;2.15;;;21.70;91.50;;;;;;5071102;28;20527;-57
2021/03/20 00:10:39;;;;;;;6.50;2.17;;;21.70;91.60;;;;;;5071202;28;20464;-57
2021/03/20 00:13:07;;;;;;;6.00;2.42;;;21.70;91.60;;;;;;5071260;28;20024;-58
2021/03/20 00:15:34;;;;;;;7.57;2.95;;;21.70;91.60;;;;;;5070600;28;20056;-51
2021/03/20 00:18:02;;;;;;;8.02;2.72;;;21.70;91.60;;;;;;5070823;28;20016;-54
2021/03/20 00:20:33;;;;;;;5.53;2.22;;;21.70;91.60;;;;;;5070933;28;20021;-59
2021/03/20 00:23:00;;;;;;;6.45;2.33;;;21.70;91.60;;;;;;5074438;28;20024;-57
2021/03/20 00:25:28;;;;;;;4.63;2.30;;;21.70;91.70;;;;;;5075128;28;20469;-61
2021/03/20 00:27:57;;;;;;;5.43;2.10;;;21.70;91.70;;;;;;5075006;28;20078;-56
2021/03/20 00:30:26;;;;;;;5.82;2.60;;;21.70;91.70;;;;;;5056823;28;20044;-58
2021/03/20 00:32:54;;;;;;;7.70;2.55;;;21.70;91.70;;;;;;5075194;28;20024;-61
2021/03/20 00:35:23;;;;;;;7.57;2.45;;;21.70;91.70;;;;;;5075063;28;20025;-58
2021/03/20 00:37:52;;;;;;;5.65;2.25;;;21.70;91.70;;;;;;5074865;28;20111;-59
2021/03/20 00:40:25;;;;;;;8.52;2.50;;;21.70;91.70;;;;;;5073588;28;20111;-55
2021/03/20 00:42:53;;;;;;;5.82;1.77;;;21.70;91.70;;;;;;5073613;28;20024;-56
2021/03/20 00:45:23;;;;;;;7.78;2.58;;;21.70;91.80;;;;;;5074859;28;20111;-58
2021/03/20 00:47:53;;;;;;;6.60;2.50;;;21.70;91.80;;;;;;5074151;28;20127;-58
2021/03/20 00:50:23;;;;;;;7.30;2.25;;;21.60;91.80;;;;;;5074777;28;20108;-58
2021/03/20 00:52:50;;;;;;;5.63;1.92;;;21.70;91.80;;;;;;5072985;28;20119;-57
2021/03/20 00:55:18;;;;;;;6.57;2.50;;;21.60;91.80;;;;;;5074516;28;20355;-57
2021/03/20 00:57:45;;;;;;;8.18;2.55;;;21.60;91.80;;;;;;5074461;28;20021;-54
2021/03/20 01:00:20;;;;;;;6.25;2.10;;;21.60;91.80;;;;;;5074836;28;20078;-54
2021/03/20 01:02:47;;;;;;;7.70;2.47;;;21.60;91.90;;;;;;5073951;28;20117;-56
2021/03/20 01:05:16;;;;;;;9.50;2.63;;;21.60;91.90;;;;;;5078769;28;20116;-60
2021/03/20 01:07:44;;;;;;;7.63;2.85;;;21.60;91.90;;;;;;5094374;28;20032;-59
2021/03/20 01:10:16;;;;;;;4.35;1.65;;;21.60;91.90;;;;;;5093952;28;20064;-58
2021/03/20 01:12:44;;;;;;;5.30;1.85;;;21.60;91.90;;;;;;5094156;28;20116;-57
2021/03/20 01:15:14;;;;;;;6.63;2.47;;;21.70;91.90;;;;;;5094319;28;20024;-60
2021/03/20 01:17:41;;;;;;;7.07;3.30;;;21.60;91.90;;;;;;5093771;28;20020;-57
2021/03/20 01:20:10;;;;;;;4.97;2.22;;;21.60;91.90;;;;;;5094441;28;20069;-57
2021/03/20 01:22:38;;;;;;;6.55;2.35;;;21.60;91.90;;;;;;5094292;28;20466;-62
2021/03/20 01:25:07;;;;;;;7.95;2.55;;;21.70;91.90;;;;;;5075988;28;20028;-62
2021/03/20 01:27:34;;;;;;;6.43;2.20;;;21.70;92.00;;;;;;5094141;28;20024;-58
2021/03/20 01:30:04;;;;;;;7.53;2.42;;;21.70;91.90;;;;;;5094020;28;20039;-60
2021/03/20 01:32:31;;;;;;;6.38;2.38;;;21.70;91.90;;;;;;5093356;28;20098;-61
2021/03/20 01:34:59;;;;;;;10.07;3.35;;;21.70;91.90;;;;;;5093815;28;20059;-63
2021/03/20 01:37:26;;;;;;;5.72;2.08;;;21.70;91.90;;;;;;5052214;28;20581;-56
2021/03/20 01:39:54;;;;;;;8.90;2.58;;;21.70;91.90;;;;;;5071750;28;20566;-55
2021/03/20 01:42:21;;;;;;;9.20;2.63;;;21.80;91.90;;;;;;5072360;28;20103;-60
2021/03/20 01:45:20;;;;;;;8.30;2.17;;;21.80;91.90;;;;;;5073518;28;20036;-61
2021/03/20 01:48:08;;;;;;;6.07;2.38;;;21.80;91.90;;;;;;5046992;28;20040;-57
2021/03/20 01:50:54;;;;;;;8.02;2.60;;;21.80;91.90;;;;;;5056418;28;20032;-55
2021/03/20 01:53:33;;;;;;;7.38;2.50;;;21.80;91.90;;;;;;5054809;28;20028;-56
2021/03/20 01:56:09;;;;;;;5.35;2.17;;;21.80;91.90;;;;;;5072707;28;20028;-59
2021/03/20 01:58:40;;;;;;;7.85;2.60;;;21.80;91.90;;;;;;5048054;28;20462;-57
2021/03/20 02:01:24;;;;;;;10.02;2.88;;;21.80;91.90;;;;;;5070863;28;20067;-58
2021/03/20 02:03:53;;;;;;;8.07;2.80;;;21.80;91.90;;;;;;5070902;28;20050;-58
2021/03/20 02:06:21;;;;;;;7.95;2.90;;;21.90;91.80;;;;;;5067448;28;20124;-53
2021/03/20 02:08:50;;;;;;;8.05;2.58;;;21.90;91.80;;;;;;5068326;28;20432;-56
2021/03/20 02:11:39;;;;;;;10.65;3.22;;;21.90;91.80;;;;;;5053226;28;20045;-54
2021/03/20 02:14:26;;;;;;;6.68;2.58;;;21.90;91.80;;;;;;5069279;28;20093;-55
2021/03/20 02:17:02;;;;;;;9.27;3.30;;;21.90;91.70;;;;;;5065867;28;20032;-51
2021/03/20 02:19:39;;;;;;;6.55;2.55;;;22.00;91.80;;;;;;5070562;28;20032;-54
2021/03/20 02:22:17;;;;;;;7.65;3.00;;;22.00;91.80;;;;;;5070802;28;20016;-49
2021/03/20 02:25:09;;;;;;;10.07;3.30;;;22.00;91.70;;;;;;5071295;28;20591;-58
2021/03/20 02:27:45;;;;;;;7.15;2.88;;;22.00;91.70;;;;;;5062931;28;20483;-53
2021/03/20 02:31:01;;;;;;;9.70;2.90;;;22.00;91.80;;;;;;5071689;28;20453;-56
2021/03/20 02:33:39;;;;;;;8.63;2.97;;;22.00;91.80;;;;;;5069785;28;20755;-59
2021/03/20 02:36:12;;;;;;;10.32;2.67;;;22.00;91.80;;;;;;5068118;28;20020;-53
2021/03/20 02:39:01;;;;;;;8.93;3.38;;;22.00;91.80;;;;;;5065292;28;20039;-61
2021/03/20 02:41:32;;;;;;;10.27;3.28;;;22.00;91.80;;;;;;5070450;28;20483;-51
2021/03/20 02:44:16;;;;;;;6.70;2.63;;;22.00;91.90;;;;;;5070185;28;20092;-55
2021/03/20 02:46:52;;;;;;;9.23;2.88;;;21.90;91.80;;;;;;5064428;28;20134;-53
2021/03/20 02:49:22;;;;;;;15.50;3.55;;;21.90;91.90;;;;;;5052133;28;20110;-54
2021/03/20 02:51:59;;;;;;;9.80;3.10;;;21.90;91.90;;;;;;5071048;28;20061;-51
2021/03/20 02:54:54;;;;;;;10.10;2.70;;;21.90;92.00;;;;;;5070752;28;20017;-51
2021/03/20 02:57:40;;;;;;;8.13;2.92;;;21.90;91.90;;;;;;5063135;28;20028;-58
2021/03/20 03:00:17;;;;;;;8.77;2.80;;;21.80;92.00;;;;;;5070937;28;20163;-58
2021/03/20 03:02:46;;;;;;;9.52;2.90;;;21.80;92.10;;;;;;5067631;28;20084;-57
2021/03/20 03:05:27;;;;;;;10.13;3.38;;;21.70;92.50;;;;;;5070434;28;20049;-54
2021/03/20 03:08:01;;;;;;;6.18;2.33;;;21.70;92.50;;;;;;5046560;28;20020;-55
2021/03/20 03:10:48;;;;;;;5.75;2.58;;;21.70;92.40;;;;;;5070583;28;20063;-50
2021/03/20 03:13:24;;;;;;;8.90;3.08;;;21.70;92.30;;;;;;5065680;28;20522;-58
2021/03/20 03:16:16;;;;;;;13.75;6.97;;;21.70;92.30;;;;;;5068345;28;20036;-56
2021/03/20 03:18:52;;;;;;;13.17;7.13;;;21.80;92.40;;;;;;5066015;28;20047;-54
2021/03/20 03:21:21;;;;;;;9.23;6.60;;;21.80;92.40;;;;;;5068458;28;20348;-52
2021/03/20 03:23:49;;;;;;;10.20;7.15;;;21.80;92.30;;;;;;5070220;28;20054;-57
2021/03/20 03:26:23;;;;;;;14.70;8.60;;;21.80;92.30;;;;;;5070782;28;20032;-58
2021/03/20 03:29:12;;;;;;;12.60;9.35;;;21.90;92.40;;;;;;5049836;28;20047;-58
2021/03/20 03:31:44;;;;;;;15.52;11.02;;;21.80;92.30;;;;;;5069236;28;20537;-61
2021/03/20 03:34:20;;;;;;;;;;;21.90;92.30;;;;;;5070396;28;20062;-58
2021/03/20 03:37:04;;;;;;;17.20;13.13;;;21.90;92.70;;;;;;5065621;28;20209;-55
2021/03/20 03:39:43;;;;;;;24.25;19.50;;;21.90;92.60;;;;;;5069625;28;20048;-59
2021/03/20 03:42:16;;;;;;;18.35;14.13;;;22.00;92.50;;;;;;5069355;28;20025;-62
2021/03/20 03:44:48;;;;;;;35.60;18.10;;;22.00;92.50;;;;;;5069390;28;20055;-53
2021/03/20 03:47:16;;;;;;;;;;;22.00;93.20;;;;;;5065565;28;20056;-56
2021/03/20 03:49:43;;;;;;;20.95;12.48;;;22.00;93.40;;;;;;5069390;28;20007;-60
2021/03/20 03:52:13;;;;;;;22.55;12.60;;;22.00;93.40;;;;;;5070698;28;20394;-58
2021/03/20 03:54:41;;;;;;;20.45;12.80;;;22.00;93.50;;;;;;5069842;28;20029;-62
2021/03/20 03:57:38;;;;;;;26.80;20.08;;;22.00;93.40;;;;;;5065158;28;20032;-58
2021/03/20 04:00:16;;;;;;;18.30;9.52;;;22.00;93.50;;;;;;5069533;28;20029;-60
2021/03/20 04:02:49;;;;;;;15.02;6.65;;;22.00;93.40;;;;;;5068355;28;20470;-57
2021/03/20 04:05:24;;;;;;;13.15;4.85;;;21.90;93.50;;;;;;5068930;28;20126;-56
2021/03/20 04:08:26;;;;;;;11.18;5.28;;;22.00;93.60;;;;;;5063701;28;20033;-58
2021/03/20 04:11:07;;;;;;;12.45;4.43;;;21.90;93.90;;;;;;5068597;28;20387;-55
2021/03/20 04:13:56;;;;;;;12.50;3.92;;;21.90;94.00;;;;;;5070003;28;20029;-55
2021/03/20 04:16:35;;;;;;;13.02;4.50;;;21.90;94.40;;;;;;5065536;28;20407;-55
2021/03/20 04:19:25;;;;;;;9.38;3.85;;;21.90;94.20;;;;;;5068656;28;20032;-56
2021/03/20 04:22:03;;;;;;;10.80;3.20;;;21.90;94.20;;;;;;5069737;28;20025;-54
2021/03/20 04:24:40;;;;;;;11.27;3.50;;;21.80;93.80;;;;;;5069716;28;20132;-55
2021/03/20 04:27:25;;;;;;;10.20;2.95;;;21.80;94.50;;;;;;5065581;28;20028;-56
2021/03/20 04:30:08;;;;;;;12.55;3.53;;;21.80;94.30;;;;;;5068704;28;20372;-57
2021/03/20 04:32:41;;;;;;;9.70;2.85;;;21.90;94.40;;;;;;5069570;28;20107;-55
2021/03/20 04:35:15;;;;;;;9.52;3.25;;;21.90;94.40;;;;;;5068525;28;20024;-61
2021/03/20 04:37:47;;;;;;;8.00;2.70;;;21.90;94.40;;;;;;5063512;28;20559;-54
2021/03/20 04:40:26;;;;;;;;;;;21.90;94.60;;;;;;5069768;28;20378;-56
2021/03/20 04:42:54;;;;;;;15.02;3.67;;;21.90;94.70;;;;;;5067661;28;20388;-62
2021/03/20 04:45:50;;;;;;;13.63;3.35;;;22.00;94.70;;;;;;5068489;28;20132;-56
2021/03/20 04:48:36;;;;;;;11.63;3.35;;;22.00;94.70;;;;;;5059531;28;20040;-58
2021/03/20 04:51:25;;;;;;;13.65;3.92;;;22.00;94.80;;;;;;5068155;28;20478;-59
2021/03/20 04:53:55;;;;;;;17.45;6.75;;;22.00;94.70;;;;;;5067680;28;20039;-55
2021/03/20 04:56:24;;;;;;;11.45;5.65;;;21.80;94.40;;;;;;5064943;28;20024;-63
2021/03/20 04:59:01;;;;;;;14.40;7.28;;;21.80;95.00;;;;;;5070990;28;20060;-55
2021/03/20 05:01:51;;;;;;;20.00;7.85;;;21.90;95.50;;;;;;5070112;28;20056;-55
2021/03/20 05:04:27;;;;;;;17.67;7.65;;;22.00;95.20;;;;;;5071025;28;20031;-55
2021/03/20 05:06:57;;;;;;;18.30;8.02;;;22.00;94.80;;;;;;5070048;28;20503;-56
2021/03/20 05:09:27;;;;;;;21.60;7.75;;;22.00;94.70;;;;;;5071683;28;20029;-55
2021/03/20 05:12:03;;;;;;;20.35;7.47;;;22.10;94.70;;;;;;5073543;28;20024;-58
2021/03/20 05:14:42;;;;;;;22.33;8.63;;;22.10;94.50;;;;;;5073791;28;20074;-55
2021/03/20 05:17:21;;;;;;;23.45;10.02;;;22.10;94.80;;;;;;5074321;28;20035;-61
2021/03/20 05:19:49;;;;;;;19.83;5.90;;;22.20;94.30;;;;;;5074156;28;20025;-60
2021/03/20 05:22:25;;;;;;;21.73;7.63;;;22.20;94.30;;;;;;5073324;28;20052;-56
2021/03/20 05:24:55;;;;;;;29.45;8.00;;;22.20;94.30;;;;;;5074278;28;20024;-60
2021/03/20 05:27:30;;;;;;;30.77;10.93;;;22.20;94.30;;;;;;5074706;28;20021;-61
2021/03/20 05:30:00;;;;;;;34.30;10.23;;;22.20;94.20;;;;;;5074307;28;20064;-55
2021/03/20 05:32:30;;;;;;;30.13;10.57;;;22.20;94.30;;;;;;5073781;28;20364;-59
2021/03/20 05:34:59;;;;;;;30.33;8.07;;;22.20;94.20;;;;;;5074381;28;20598;-58
2021/03/20 05:37:32;;;;;;;35.85;7.72;;;22.20;94.20;;;;;;5073733;28;20467;-55
2021/03/20 05:39:59;;;;;;;27.60;7.50;;;22.20;94.50;;;;;;5074014;28;20483;-59
2021/03/20 05:42:45;;;;;;;33.20;10.38;;;22.20;94.60;;;;;;5073391;28;20021;-60
2021/03/20 05:45:42;;;;;;;29.52;8.50;;;22.30;94.60;;;;;;5074079;28;20024;-59
2021/03/20 05:48:20;;;;;;;36.67;7.95;;;22.30;94.40;;;;;;5074150;28;20104;-58
2021/03/20 05:50:47;;;;;;;51.20;7.70;;;22.30;94.40;;;;;;5070310;28;20051;-56
2021/03/20 05:53:51;;;;;;;27.45;6.03;;;22.40;94.70;;;;;;5073277;28;20062;-59
2021/03/20 05:56:21;;;;;;;31.80;6.93;;;22.40;94.10;;;;;;5072956;28;20032;-59
2021/03/20 05:59:14;;;;;;;39.70;8.95;;;22.30;94.20;;;;;;5073152;28;20039;-60
2021/03/20 06:01:47;;;;;;;30.10;7.25;;;22.30;94.40;;;;;;5073165;28;20044;-58
2021/03/20 06:04:17;;;;;;;34.45;6.97;;;22.30;94.50;;;;;;5073038;28;20028;-55
2021/03/20 06:07:16;;;;;;;31.02;7.55;;;22.30;94.70;;;;;;5073048;28;20120;-58
2021/03/20 06:09:58;;;;;;;37.67;8.02;;;22.40;94.30;;;;;;5073186;28;20063;-59
2021/03/20 06:12:54;;;;;;;62.97;8.68;;;22.50;94.30;;;;;;5073097;28;20151;-54
2021/03/20 06:15:33;;;;;;;36.55;7.47;;;22.50;94.60;;;;;;5073080;28;20040;-59
2021/03/20 06:18:27;;;;;;;32.53;6.25;;;22.40;94.90;;;;;;5073299;28;20025;-56
2021/03/20 06:20:58;;;;;;;34.03;6.20;;;22.30;94.90;;;;;;5072215;28;20035;-57
2021/03/20 06:23:50;;;;;;;36.72;6.78;;;22.40;95.10;;;;;;5052867;28;20028;-54
2021/03/20 06:26:31;;;;;;;;;;;22.40;94.90;;;;;;5053681;28;20052;-59
2021/03/20 06:29:13;;;;;;;31.48;6.07;;;22.40;95.10;;;;;;5035077;28;19920;-57
2021/03/20 06:31:57;;;;;;;33.15;6.93;;;22.50;95.00;;;;;;5052447;28;20116;-56
2021/03/20 06:34:24;;;;;;;25.67;6.60;;;22.50;94.90;;;;;;5052887;28;20029;-54
2021/03/20 06:37:21;;;;;;;40.78;8.23;;;22.60;94.90;;;;;;5052806;28;20055;-54
2021/03/20 06:39:57;;;;;;;27.95;7.22;;;22.60;94.80;;;;;;5030903;28;20463;-57
2021/03/20 06:42:30;;;;;;;34.55;7.60;;;22.60;94.70;;;;;;5052132;28;20057;-57
2021/03/20 06:45:06;;;;;;;33.95;7.07;;;22.60;94.80;;;;;;5052221;28;20510;-54
2021/03/20 06:47:35;;;;;;;57.63;8.35;;;22.60;94.70;;;;;;5055938;28;20106;-55
2021/03/20 06:50:25;;;;;;;40.92;8.25;;;22.60;94.60;;;;;;5072273;28;20028;-57
2021/03/20 06:53:00;;;;;;;37.83;9.05;;;22.70;94.50;;;;;;5072428;28;20479;-52
2021/03/20 06:55:33;;;;;;;43.45;10.27;;;22.70;94.40;;;;;;5088785;28;20382;-58
2021/03/20 06:58:35;;;;;;;41.30;8.57;;;22.70;94.30;;;;;;5092641;28;20020;-61
2021/03/20 07:01:36;;;;;;;49.28;9.13;;;22.70;94.30;;;;;;5056770;28;20078;-55
2021/03/20 07:04:26;;;;;;;46.88;9.80;;;22.70;94.30;;;;;;5056862;28;20051;-55
2021/03/20 07:07:48;;;;;;;41.15;9.00;;;22.70;94.40;;;;;;5060783;28;20040;-58
2021/03/20 07:10:43;;;;;;;35.40;8.45;;;22.80;94.10;;;;;;4988860;28;20038;-56
2021/03/20 07:13:31;;;;;;;32.17;8.07;;;22.70;93.90;;;;;;5068470;28;20037;-56
2021/03/20 07:16:14;;;;;;;43.80;9.63;;;22.60;93.80;;;;;;5069921;28;20074;-58
2021/03/20 07:18:51;;;;;;;45.65;9.52;;;22.50;93.90;;;;;;5069591;28;20028;-58
2021/03/20 07:21:25;;;;;;;38.13;10.32;;;22.50;93.90;;;;;;5070002;28;20031;-56
2021/03/20 07:24:01;;;;;;;36.65;9.23;;;22.50;93.90;;;;;;5070274;28;20035;-62
2021/03/20 07:26:31;;;;;;;41.55;9.23;;;22.50;93.90;;;;;;5070750;28;20447;-59
2021/03/20 07:29:01;;;;;;;36.75;9.55;;;22.40;93.90;;;;;;5071755;28;20024;-55
2021/03/20 07:31:29;;;;;;;30.52;8.32;;;22.40;93.90;;;;;;5071989;28;20039;-57
2021/03/20 07:34:15;;;;;;;33.00;8.40;;;22.40;93.90;;;;;;5071259;28;20021;-47
2021/03/20 07:36:42;;;;;;;37.58;8.85;;;22.40;93.90;;;;;;5072264;28;20035;-49
2021/03/20 07:39:27;;;;;;;34.17;7.93;;;22.40;93.90;;;;;;5058024;28;20414;-54
2021/03/20 07:41:59;;;;;;;33.53;8.50;;;22.40;93.80;;;;;;5069799;28;20113;-51
2021/03/20 07:44:29;;;;;;;34.92;8.88;;;22.40;93.80;;;;;;5070332;28;20027;-48
2021/03/20 07:46:57;;;;;;;31.20;8.35;;;22.40;93.80;;;;;;5070061;28;20036;-54
2021/03/20 07:49:32;;;;;;;35.90;8.52;;;22.40;93.80;;;;;;5063843;28;20093;-54
2021/03/20 07:52:06;;;;;;;31.05;8.02;;;22.40;93.80;;;;;;5069936;28;20036;-58
2021/03/20 07:54:36;;;;;;;28.98;8.38;;;22.40;93.70;;;;;;5070612;28;20105;-53
2021/03/20 07:57:09;;;;;;;29.88;8.02;;;22.50;93.70;;;;;;5066283;28;20046;-57
2021/03/20 07:59:49;;;;;;;30.42;7.47;;;22.50;93.70;;;;;;5062578;28;20027;-59
2021/03/20 08:02:28;;;;;;;35.15;7.85;;;22.40;93.70;;;;;;5067194;28;20028;-57
2021/03/20 08:05:06;;;;;;;30.00;8.60;;;22.40;93.60;;;;;;5069446;28;20043;-57
2021/03/20 08:07:46;;;;;;;28.42;8.27;;;22.40;93.90;;;;;;5068465;28;20507;-56
2021/03/20 08:10:27;;;;;;;34.30;8.52;;;22.40;93.60;;;;;;5062849;28;20029;-54
2021/03/20 08:12:59;;;;;;;26.88;7.57;;;22.40;93.60;;;;;;5069386;28;20127;-56
2021/03/20 08:15:41;;;;;;;25.67;7.22;;;22.40;93.60;;;;;;5067987;28;20487;-52
2021/03/20 08:18:30;;;;;;;22.33;7.15;;;22.30;93.60;;;;;;5068373;28;20059;-54
2021/03/20 08:21:16;;;;;;;24.30;7.10;;;22.30;93.60;;;;;;5064603;28;20026;-60
2021/03/20 08:24:13;;;;;;;27.30;7.05;;;22.30;93.60;;;;;;5066724;28;20404;-58
2021/03/20 08:26:53;;;;;;;30.90;7.25;;;22.30;93.60;;;;;;5066851;28;20023;-55
2021/03/20 08:29:23;;;;;;;34.83;8.80;;;22.20;93.70;;;;;;5061745;28;20111;-56
2021/03/20 08:31:53;;;;;;;29.92;7.10;;;22.20;93.80;;;;;;5069771;28;20036;-50
2021/03/20 08:34:26;;;;;;;33.22;8.88;;;22.20;93.80;;;;;;5069427;28;20039;-58
2021/03/20 08:37:15;;;;;;;24.85;7.38;;;22.20;93.80;;;;;;5069826;28;20056;-52
2021/03/20 08:39:48;;;;;;;30.13;7.57;;;22.20;93.80;;;;;;5061476;28;20085;-63
2021/03/20 08:42:42;;;;;;;29.88;8.18;;;22.20;93.80;;;;;;5067503;28;20074;-55
2021/03/20 08:45:46;;;;;;;36.55;9.07;;;22.20;93.80;;;;;;5070236;28;20028;-59
2021/03/20 08:48:18;;;;;;;27.95;7.15;;;22.20;93.80;;;;;;5069774;28;20021;-53
2021/03/20 08:50:52;;;;;;;29.88;8.02;;;22.20;93.80;;;;;;5065637;28;20037;-55
2021/03/20 08:53:36;;;;;;;26.05;8.02;;;22.30;93.80;;;;;;5073123;28;20021;-56
2021/03/20 08:56:35;;;;;;;26.67;8.32;;;22.20;93.70;;;;;;5073285;28;20017;-56
2021/03/20 08:59:27;;;;;;;27.33;7.85;;;22.20;93.70;;;;;;5069747;28;20479;-56
2021/03/20 09:02:00;;;;;;;28.60;7.35;;;22.30;93.70;;;;;;5064922;28;20099;-61
2021/03/20 09:04:34;;;;;;;27.08;8.68;;;22.30;93.70;;;;;;5073096;28;20413;-58
2021/03/20 09:07:15;;;;;;;31.38;8.88;;;22.30;93.70;;;;;;5073459;28;20049;-59
2021/03/20 09:09:50;;;;;;;29.23;7.85;;;22.30;93.70;;;;;;5064510;28;20025;-57
2021/03/20 09:12:40;;;;;;;25.48;7.22;;;22.30;93.70;;;;;;5070772;28;20036;-56
2021/03/20 09:15:27;;;;;;;23.98;6.78;;;22.30;93.70;;;;;;5072982;28;20549;-61
2021/03/20 09:17:58;;;;;;;26.63;7.15;;;22.30;93.60;;;;;;5037123;28;20462;-55
2021/03/20 09:20:49;;;;;;;30.13;7.95;;;22.30;93.60;;;;;;5068105;28;20036;-54
2021/03/20 09:23:29;;;;;;;23.90;6.25;;;22.30;93.60;;;;;;5070315;28;20032;-55
2021/03/20 09:26:00;;;;;;;27.27;7.72;;;22.30;93.60;;;;;;5072145;28;20436;-55
2021/03/20 09:28:54;;;;;;;31.60;7.40;;;22.30;93.60;;;;;;5071677;28;20028;-58
2021/03/20 09:31:31;;;;;;;22.00;6.22;;;22.30;93.50;;;;;;5067400;28;20086;-60
2021/03/20 09:34:19;;;;;;;22.20;6.22;;;22.30;93.50;;;;;;5072450;28;20066;-59
2021/03/20 09:36:49;;;;;;;22.58;7.15;;;22.30;93.50;;;;;;5070337;28;20024;-60
2021/03/20 09:39:53;;;;;;;25.50;7.65;;;22.30;93.50;;;;;;5064638;28;20840;-62
2021/03/20 09:42:27;;;;;;;25.25;7.07;;;22.30;93.50;;;;;;4988886;28;20096;-61
2021/03/20 09:44:57;;;;;;;27.58;8.10;;;22.30;93.40;;;;;;5060913;28;20437;-56
2021/03/20 09:47:47;;;;;;;23.67;7.85;;;22.40;93.40;;;;;;5072113;28;20391;-57
2021/03/20 09:50:20;;;;;;;15.80;5.50;;;22.40;93.40;;;;;;5066292;28;20032;-59
2021/03/20 09:53:15;;;;;;;25.48;6.95;;;22.40;93.40;;;;;;5070035;28;20048;-58
2021/03/20 09:55:45;;;;;;;24.05;5.97;;;22.40;93.30;;;;;;5070951;28;20052;-60
2021/03/20 09:58:21;;;;;;;21.98;6.75;;;22.30;93.30;;;;;;5071365;28;20035;-58
2021/03/20 10:00:56;;;;;;;21.92;7.00;;;22.40;93.30;;;;;;5065568;28;20356;-61
2021/03/20 10:03:44;;;;;;;21.45;6.40;;;22.40;93.40;;;;;;5071592;28;20475;-59
2021/03/20 10:06:34;;;;;;;25.60;6.78;;;22.40;93.30;;;;;;5071508;28;20135;-62
2021/03/20 10:09:04;;;;;;;23.80;7.50;;;22.40;93.30;;;;;;5068902;28;20481;-60
2021/03/20 10:11:58;;;;;;;23.05;6.40;;;22.40;93.30;;;;;;5069976;28;20173;-61
2021/03/20 10:14:37;;;;;;;21.00;6.22;;;22.40;93.20;;;;;;5070135;28;20474;-53
2021/03/20 10:17:14;;;;;;;20.83;6.55;;;22.30;93.20;;;;;;5071679;28;20490;-58
2021/03/20 10:19:50;;;;;;;26.83;6.78;;;22.40;93.30;;;;;;5066463;28;20486;-55
2021/03/20 10:22:29;;;;;;;21.05;7.25;;;22.30;93.20;;;;;;5069874;28;20037;-58
2021/03/20 10:24:56;;;;;;;22.77;6.97;;;22.30;93.30;;;;;;5070368;28;20024;-60
2021/03/20 10:27:35;;;;;;;26.67;7.13;;;22.30;93.30;;;;;;5071313;28;20024;-60
2021/03/20 10:30:16;;;;;;;22.77;5.75;;;22.30;93.30;;;;;;5066245;28;20033;-64
2021/03/20 10:33:07;;;;;;;27.67;7.50;;;22.30;93.20;;;;;;5071575;28;20090;-63
2021/03/20 10:35:38;;;;;;;22.23;6.80;;;22.30;93.20;;;;;;5069457;28;20487;-57
2021/03/20 10:38:28;;;;;;;22.42;6.63;;;22.30;93.20;;;;;;5071177;28;20029;-59
2021/03/20 10:41:12;;;;;;;23.95;7.18;;;22.30;93.20;;;;;;5065393;28;20040;-59
2021/03/20 10:43:50;;;;;;;25.13;7.20;;;22.30;93.20;;;;;;5069621;28;20045;-53
2021/03/20 10:46:26;;;;;;;26.40;5.88;;;22.30;93.20;;;;;;5071302;28;20135;-60
2021/03/20 10:48:57;;;;;;;22.95;6.38;;;22.40;93.20;;;;;;5069048;28;20340;-53
2021/03/20 10:51:28;;;;;;;22.00;6.40;;;22.30;93.10;;;;;;5050146;28;20151;-56
2021/03/20 10:54:07;;;;;;;22.23;6.80;;;22.30;93.10;;;;;;5071723;28;20042;-57
2021/03/20 10:56:37;;;;;;;23.60;6.25;;;22.30;93.10;;;;;;5071612;28;20410;-58
2021/03/20 10:59:38;;;;;;;26.40;6.90;;;22.30;93.10;;;;;;5068134;28;20055;-52
2021/03/20 11:02:32;;;;;;;22.50;6.57;;;22.30;93.10;;;;;;5027679;28;20035;-56
2021/03/20 11:05:20;;;;;;;23.52;6.82;;;22.30;93.10;;;;;;5069200;28;20884;-57
2021/03/20 11:07:57;;;;;;;18.67;5.53;;;22.30;93.10;;;;;;5070520;28;20366;-57
2021/03/20 11:10:35;;;;;;;26.75;6.80;;;22.30;93.00;;;;;;5064347;28;20028;-55
2021/03/20 11:13:10;;;;;;;17.95;5.95;;;22.30;93.00;;;;;;5070401;28;20414;-53
2021/03/20 11:15:42;;;;;;;24.38;7.10;;;22.30;93.00;;;;;;5071062;28;20032;-57
2021/03/20 11:18:17;;;;;;;24.45;7.50;;;22.30;93.10;;;;;;5052563;28;20025;-57
2021/03/20 11:20:46;;;;;;;19.75;6.38;;;22.30;93.10;;;;;;5065962;28;20103;-56
2021/03/20 11:23:36;;;;;;;25.98;6.25;;;22.30;93.10;;;;;;5070716;28;20459;-53
2021/03/20 11:26:24;;;;;;;23.58;7.13;;;22.30;93.00;;;;;;5070201;28;20615;-52
2021/03/20 11:28:53;;;;;;;16.70;5.85;;;22.30;93.00;;;;;;5069835;28;20533;-52
2021/03/20 11:31:22;;;;;;;20.20;5.82;;;22.30;93.00;;;;;;5065303;28;20123;-54
2021/03/20 11:33:50;;;;;;;20.23;6.47;;;22.30;93.00;;;;;;5070334;28;20029;-61
2021/03/20 11:36:25;;;;;;;20.73;5.90;;;22.30;93.00;;;;;;5070520;28;20024;-61
2021/03/20 11:38:52;;;;;;;19.25;6.40;;;22.30;93.00;;;;;;5069686;28;20051;-60
2021/03/20 11:41:25;;;;;;;25.77;7.53;;;22.30;93.00;;;;;;5064737;28;20021;-62
2021/03/20 11:44:02;;;;;;;22.00;6.00;;;22.30;93.00;;;;;;5070694;28;20087;-61
2021/03/20 11:47:06;;;;;;;24.85;6.63;;;22.30;93.00;;;;;;5072258;28;20066;-62
2021/03/20 11:49:44;;;;;;;19.98;6.03;;;22.30;93.00;;;;;;5071967;28;20031;-62
2021/03/20 11:52:18;;;;;;;17.42;5.22;;;22.30;93.00;;;;;;5072115;28;20020;-59
2021/03/20 11:54:47;;;;;;;21.20;5.72;;;22.30;93.10;;;;;;5071774;28;20037;-55
2021/03/20 11:57:37;;;;;;;15.93;5.00;;;22.20;93.00;;;;;;5071384;28;20024;-63
2021/03/20 12:00:45;;;;;;;18.25;6.25;;;22.20;93.00;;;;;;5071476;28;20020;-57
2021/03/20 12:03:35;;;;;;;21.10;5.75;;;22.20;93.00;;;;;;5071987;28;20074;-57
2021/03/20 12:06:18;;;;;;;20.98;7.05;;;22.20;93.10;;;;;;5071820;28;20394;-55
2021/03/20 12:08:55;;;;;;;21.25;5.75;;;22.20;93.00;;;;;;5071765;28;20024;-59
2021/03/20 12:11:44;;;;;;;20.23;6.43;;;22.20;93.10;;;;;;5071875;28;20082;-63
2021/03/20 12:14:44;;;;;;;18.40;5.78;;;22.20;93.10;;;;;;5072029;28;20025;-63
2021/03/20 12:17:14;;;;;;;18.70;5.55;;;22.20;93.10;;;;;;5072048;28;20450;-63
2021/03/20 12:20:06;;;;;;;19.63;6.05;;;22.10;93.10;;;;;;5076246;28;20467;-57
2021/03/20 12:22:50;;;;;;;22.17;6.10;;;22.10;93.10;;;;;;5057910;28;20115;-60
2021/03/20 12:25:24;;;;;;;20.08;5.85;;;22.10;93.10;;;;;;5075959;28;20486;-60
2021/03/20 12:27:54;;;;;;;14.98;5.28;;;22.10;93.20;;;;;;5075334;28;20436;-57
2021/03/20 12:30:34;;;;;;;20.02;6.25;;;22.10;93.10;;;;;;5075770;28;20031;-62
2021/03/20 12:33:15;;;;;;;22.33;6.47;;;22.20;93.20;;;;;;5075636;28;20029;-65
2021/03/20 12:35:50;;;;;;;19.23;6.18;;;22.10;93.10;;;;;;5075172;28;20021;-60
2021/03/20 12:38:24;;;;;;;22.35;6.60;;;22.10;93.20;;;;;;5075272;28;20032;-64
2021/03/20 12:41:04;;;;;;;21.02;5.88;;;22.10;93.10;;;;;;5074908;28;20471;-63
2021/03/20 12:43:37;;;;;;;20.15;5.78;;;22.10;93.10;;;;;;5056995;28;20074;-56
2021/03/20 12:46:07;;;;;;;18.95;5.80;;;22.10;93.20;;;;;;5075380;28;20153;-59
2021/03/20 12:48:41;;;;;;;20.15;5.38;;;22.10;93.20;;;;;;5074864;28;20025;-60
2021/03/20 12:51:21;;;;;;;15.55;5.43;;;22.10;93.20;;;;;;5074743;28;20097;-63
2021/03/20 12:53:48;;;;;;;19.45;5.53;;;22.10;93.10;;;;;;5074784;28;20032;-62
2021/03/20 12:56:16;;;;;;;20.45;5.35;;;22.10;93.20;;;;;;5075244;28;20028;-60
2021/03/20 12:58:44;;;;;;;18.75;5.32;;;22.10;93.10;;;;;;5074734;28;20013;-56
2021/03/20 13:01:11;;;;;;;17.15;5.97;;;22.10;93.20;;;;;;5074850;28;20036;-57
2021/03/20 13:03:39;;;;;;;17.05;5.20;;;22.10;93.20;;;;;;5074573;28;20020;-54
2021/03/20 13:06:07;;;;;;;17.35;5.43;;;22.10;93.20;;;;;;5086789;28;20398;-59
2021/03/20 13:08:38;;;;;;;18.85;5.22;;;22.10;93.20;;;;;;5095039;28;20103;-54
2021/03/20 13:11:08;;;;;;;14.18;4.95;;;22.10;93.10;;;;;;5095149;28;20040;-58
2021/03/20 13:13:35;;;;;;;17.33;5.38;;;22.10;93.10;;;;;;5094679;28;20028;-57
2021/03/20 13:16:03;;;;;;;19.50;6.05;;;22.10;93.00;;;;;;5095504;28;20028;-58
2021/03/20 13:18:30;;;;;;;18.95;5.95;;;22.10;93.20;;;;;;5094934;28;20052;-57
2021/03/20 13:20:57;;;;;;;19.23;5.57;;;22.00;93.10;;;;;;5094859;28;20047;-62
2021/03/20 13:23:24;;;;;;;17.90;5.07;;;22.00;93.10;;;;;;5094909;28;20066;-60
2021/03/20 13:25:52;;;;;;;15.02;4.20;;;22.00;93.10;;;;;;5066427;28;20047;-66
2021/03/20 13:28:19;;;;;;;18.23;5.43;;;22.00;93.10;;;;;;5075435;28;20025;-58
2021/03/20 13:30:47;;;;;;;17.90;5.60;;;22.00;93.10;;;;;;5070640;28;20017;-56
2021/03/20 13:33:16;;;;;;;15.90;5.25;;;22.00;93.10;;;;;;5076051;28;20101;-54